createdAt,value
2022-07-30T00:04:30.987Z,1.38
2022-07-30T00:09:34.294Z,1.25
2022-07-30T00:14:39.268Z,1.40
2022-07-30T00:19:42.377Z,1.48
2022-07-30T00:24:47.085Z,1.30
2022-07-30T00:29:51.544Z,1.50
2022-07-30T00:34:54.898Z,1.40
2022-07-30T00:39:57.869Z,1.30
2022-07-30T00:45:02.212Z,1.50
2022-07-30T00:50:07.744Z,1.55
2022-07-30T00:55:12.779Z,1.77
2022-07-30T01:00:18.300Z,1.50
2022-07-30T01:05:21.717Z,1.75
2022-07-30T01:10:25.366Z,1.27
2022-07-30T01:15:30.621Z,1.45
2022-07-30T01:20:38.541Z,1.30
2022-07-30T01:25:55.680Z,1.60
2022-07-30T01:31:00.580Z,1.50
2022-07-30T01:36:04.847Z,1.20
2022-07-30T01:41:11.415Z,1.55
2022-07-30T01:46:16.869Z,1.33
2022-07-30T01:51:20.403Z,1.50
2022-07-30T01:56:26.691Z,1.50
2022-07-30T02:01:29.869Z,1.50
2022-07-30T02:06:37.674Z,1.55
2022-07-30T02:12:03.840Z,1.55
2022-07-30T02:17:19.112Z,1.50
2022-07-30T02:22:24.209Z,1.25
2022-07-30T02:27:33.918Z,1.40
2022-07-30T02:32:41.205Z,1.50
2022-07-30T02:37:47.423Z,1.50
2022-07-30T02:42:53.608Z,1.85
2022-07-30T02:48:00.558Z,1.85
2022-07-30T02:53:05.530Z,2.00
2022-07-30T02:58:11.948Z,2.33
2022-07-30T03:03:16.794Z,2.05
2022-07-30T03:08:20.545Z,2.65
2022-07-30T03:13:25.845Z,2.40
2022-07-30T03:18:34.691Z,2.80
2022-07-30T03:23:38.662Z,7.15
2022-07-30T03:28:44.306Z,8.73
2022-07-30T03:33:47.979Z,7.10
2022-07-30T03:38:51.455Z,6.72
2022-07-30T03:43:56.591Z,8.48
2022-07-30T03:49:01.134Z,4.70
2022-07-30T03:54:13.304Z,2.92
2022-07-30T03:59:18.396Z,2.30
2022-07-30T04:04:21.509Z,2.40
2022-07-30T04:09:25.028Z,1.90
2022-07-30T04:14:39.587Z,2.10
2022-07-30T04:19:47.293Z,1.90
2022-07-30T04:24:52.473Z,2.15
2022-07-30T04:29:57.651Z,2.30
2022-07-30T04:35:00.896Z,1.83
2022-07-30T04:40:04.610Z,2.20
2022-07-30T04:45:11.707Z,2.30
2022-07-30T04:50:17.124Z,1.90
2022-07-30T04:55:21.229Z,2.30
2022-07-30T05:00:26.012Z,1.65
2022-07-30T05:05:32.614Z,2.30
2022-07-30T05:10:35.708Z,4.15
2022-07-30T05:15:40.258Z,4.88
2022-07-30T05:20:43.552Z,3.95
2022-07-30T05:25:46.522Z,4.32
2022-07-30T05:30:51.045Z,3.08
2022-07-30T05:35:54.971Z,2.53
2022-07-30T05:40:58.043Z,3.20
2022-07-30T05:46:02.881Z,2.33
2022-07-30T05:51:06.336Z,2.20
2022-07-30T05:56:09.452Z,2.30
2022-07-30T06:01:14.148Z,2.47
2022-07-30T06:06:22.432Z,2.25
2022-07-30T06:11:25.858Z,2.90
2022-07-30T06:16:31.324Z,3.05
2022-07-30T06:22:01.653Z,2.50
2022-07-30T06:26:57.256Z,2.60
2022-07-30T06:32:01.959Z,2.90
2022-07-30T06:37:04.986Z,2.92
2022-07-30T06:42:07.917Z,2.90
2022-07-30T06:47:12.859Z,2.85
2022-07-30T06:52:18.748Z,3.10
2022-07-30T06:57:21.996Z,2.90
2022-07-30T07:02:26.551Z,2.63
2022-07-30T07:07:41.374Z,2.83
2022-07-30T07:12:46.071Z,2.70
2022-07-30T07:17:50.661Z,2.88
2022-07-30T07:22:53.707Z,3.65
2022-07-30T07:28:11.893Z,3.65
2022-07-30T07:33:17.472Z,3.38
2022-07-30T07:38:20.892Z,3.30
2022-07-30T07:43:25.484Z,2.92
2022-07-30T07:48:29.929Z,2.72
2022-07-30T07:53:32.907Z,2.83
2022-07-30T07:58:35.855Z,2.97
2022-07-30T08:03:42.779Z,2.92
2022-07-30T08:08:46.159Z,2.92
2022-07-30T08:13:51.704Z,3.30
2022-07-30T08:18:57.520Z,2.97
2022-07-30T08:24:00.565Z,2.75
2022-07-30T08:29:04.281Z,3.25
2022-07-30T08:34:08.984Z,3.22
2022-07-30T08:39:11.917Z,3.00
2022-07-30T08:44:18.946Z,3.13
2022-07-30T08:49:23.760Z,3.40
2022-07-30T08:54:27.372Z,4.30
2022-07-30T08:59:59.486Z,3.88
2022-07-30T09:04:56.094Z,3.45
2022-07-30T09:09:59.326Z,3.40
2022-07-30T09:15:04.613Z,3.90
2022-07-30T09:20:10.897Z,3.40
2022-07-30T09:25:13.867Z,3.80
2022-07-30T09:30:17.646Z,4.35
2022-07-30T09:35:23.465Z,3.78
2022-07-30T09:40:32.188Z,4.30
2022-07-30T09:45:35.543Z,3.47
2022-07-30T09:50:50.029Z,3.95
2022-07-30T09:55:53.631Z,3.90
2022-07-30T10:00:59.808Z,3.50
2022-07-30T10:06:05.074Z,3.65
2022-07-30T10:11:11.350Z,3.35
2022-07-30T10:16:15.267Z,3.92
2022-07-30T10:21:21.076Z,3.33
2022-07-30T10:26:30.752Z,4.22
2022-07-30T10:31:49.159Z,3.90
2022-07-30T10:37:06.891Z,4.18
2022-07-30T10:42:21.768Z,5.25
2022-07-30T10:47:29.769Z,7.65
2022-07-30T10:52:47.159Z,6.68
2022-07-30T10:58:05.959Z,6.00
2022-07-30T11:03:20.498Z,6.13
2022-07-30T11:08:37.893Z,5.30
2022-07-30T11:13:54.451Z,5.43
2022-07-30T11:24:47.619Z,4.60
2022-07-30T11:29:52.095Z,4.68
2022-07-30T11:35:23.449Z,4.80
2022-07-30T11:40:29.514Z,5.00
2022-07-30T11:45:33.307Z,4.82
2022-07-30T11:50:38.466Z,5.10
2022-07-30T11:55:44.162Z,4.97
2022-07-30T12:00:48.296Z,5.30
2022-07-30T12:05:53.419Z,5.28
2022-07-30T12:10:59.958Z,5.43
2022-07-30T12:16:08.109Z,5.43
2022-07-30T12:21:17.839Z,5.45
2022-07-30T12:26:23.490Z,5.45
2022-07-30T12:31:27.787Z,5.57
2022-07-30T12:36:32.325Z,5.40
2022-07-30T12:41:44.227Z,4.93
2022-07-30T12:46:47.677Z,5.45
2022-07-30T12:51:52.700Z,5.93
2022-07-30T12:57:06.589Z,6.72
2022-07-30T13:02:10.027Z,6.00
2022-07-30T13:07:13.534Z,6.18
2022-07-30T13:12:18.333Z,7.07
2022-07-30T13:17:21.303Z,7.70
2022-07-30T13:22:24.199Z,8.13
2022-07-30T13:27:29.218Z,8.02
2022-07-30T13:32:32.331Z,7.50
2022-07-30T13:37:38.020Z,7.25
2022-07-30T13:42:43.128Z,8.07
2022-07-30T13:47:46.355Z,9.82
2022-07-30T13:52:49.607Z,11.30
2022-07-30T13:57:54.193Z,9.90
2022-07-30T14:02:57.055Z,7.00
2022-07-30T14:08:00.748Z,6.82
2022-07-30T14:13:06.318Z,6.60
2022-07-30T14:18:09.259Z,6.43
2022-07-30T14:23:12.283Z,6.43
2022-07-30T14:28:16.776Z,6.22
2022-07-30T14:33:19.798Z,6.32
2022-07-30T14:38:22.741Z,6.20
2022-07-30T14:43:30.577Z,5.53
2022-07-30T14:48:33.665Z,4.70
2022-07-30T14:53:36.924Z,4.97
2022-07-30T14:58:41.500Z,5.30
2022-07-30T15:03:44.724Z,4.82
2022-07-30T15:08:47.800Z,5.22
2022-07-30T15:13:52.295Z,8.43
2022-07-30T15:18:55.506Z,6.47
2022-07-30T15:23:58.459Z,10.25
2022-07-30T15:29:03.141Z,5.43
2022-07-30T15:34:11.163Z,5.60
2022-07-30T15:39:15.467Z,5.22
2022-07-30T15:44:20.528Z,4.57
2022-07-30T15:49:24.165Z,4.47
2022-07-30T15:54:27.153Z,4.20
2022-07-30T15:59:31.862Z,4.45
2022-07-30T16:04:34.703Z,4.68
2022-07-30T16:09:37.724Z,4.68
2022-07-30T16:14:42.863Z,4.55
2022-07-30T16:19:46.852Z,4.80
2022-07-30T16:24:50.091Z,4.88
2022-07-30T16:29:54.717Z,4.93
2022-07-30T16:34:57.701Z,4.57
2022-07-30T16:40:00.648Z,4.93
2022-07-30T16:45:05.726Z,5.10
2022-07-30T16:50:10.422Z,5.32
2022-07-30T16:55:13.575Z,5.50
2022-07-30T17:00:18.966Z,4.70
2022-07-30T17:05:21.844Z,4.53
2022-07-30T17:10:26.551Z,4.15
2022-07-30T17:15:33.309Z,4.55
2022-07-30T17:20:37.248Z,3.80
2022-07-30T17:25:40.283Z,3.90
2022-07-30T17:30:44.835Z,3.60
2022-07-30T17:35:47.705Z,3.47
2022-07-30T17:40:50.808Z,3.13
2022-07-30T17:45:55.175Z,3.30
2022-07-30T17:50:58.172Z,3.60
2022-07-30T17:56:05.702Z,3.50
2022-07-30T18:01:13.241Z,3.58
2022-07-30T18:06:16.464Z,3.30
2022-07-30T18:11:19.523Z,3.55
2022-07-30T18:16:24.613Z,3.47
2022-07-30T18:21:27.783Z,3.70
2022-07-30T18:26:36.817Z,3.33
2022-07-30T18:31:41.627Z,3.30
2022-07-30T18:36:44.730Z,3.25
2022-07-30T18:41:47.864Z,3.38
2022-07-30T18:46:52.246Z,3.38
2022-07-30T18:51:59.578Z,3.42
2022-07-30T18:57:03.451Z,3.70
2022-07-30T19:02:08.668Z,3.42
2022-07-30T19:07:12.021Z,3.75
2022-07-30T19:12:14.971Z,3.72
2022-07-30T19:17:19.628Z,3.65
2022-07-30T19:22:29.876Z,4.00
2022-07-30T19:27:33.127Z,4.88
2022-07-30T19:32:37.625Z,3.78
2022-07-30T19:37:40.621Z,3.90
2022-07-30T19:42:43.637Z,3.97
2022-07-30T19:47:48.962Z,4.30
2022-07-30T19:52:55.055Z,5.00
2022-07-30T19:57:58.102Z,4.80
2022-07-30T20:03:03.012Z,5.22
2022-07-30T20:08:08.008Z,6.28
2022-07-30T20:13:12.106Z,6.78
2022-07-30T20:18:17.365Z,5.00
2022-07-30T20:23:32.344Z,9.32
2022-07-30T20:28:35.584Z,5.30
2022-07-30T20:33:40.761Z,5.38
2022-07-30T20:38:47.306Z,4.88
2022-07-30T20:43:52.464Z,5.20
2022-07-30T20:48:59.332Z,5.20
2022-07-30T20:54:02.913Z,5.03
2022-07-30T20:59:06.837Z,4.80
2022-07-30T21:04:25.593Z,4.50
2022-07-30T21:09:49.819Z,5.03
2022-07-30T21:14:54.716Z,5.57
2022-07-30T21:19:59.483Z,5.05
2022-07-30T21:25:08.248Z,4.93
2022-07-30T21:30:12.514Z,4.78
2022-07-30T21:35:17.096Z,5.32
2022-07-30T21:40:24.640Z,5.13
2022-07-30T21:45:37.837Z,5.40
2022-07-30T21:50:43.177Z,5.25
2022-07-30T21:55:52.397Z,5.10
2022-07-30T22:01:16.221Z,5.88
2022-07-30T22:06:22.574Z,5.28
2022-07-30T22:11:27.200Z,5.10
2022-07-30T22:16:46.598Z,4.75
2022-07-30T22:21:51.426Z,4.90
2022-07-30T22:26:54.370Z,4.18
2022-07-30T22:31:59.961Z,5.07
2022-07-30T22:37:04.731Z,5.00
2022-07-30T22:42:16.367Z,5.15
2022-07-30T22:47:21.703Z,5.30
2022-07-30T22:52:55.860Z,6.00
2022-07-30T22:58:04.761Z,5.10
2022-07-30T23:03:07.842Z,5.82
2022-07-30T23:08:12.859Z,5.72
2022-07-30T23:13:15.683Z,5.97
2022-07-30T23:18:18.716Z,5.85
2022-07-30T23:23:23.568Z,6.40
2022-07-30T23:28:26.658Z,5.65
2022-07-30T23:33:30.828Z,6.13
2022-07-30T23:38:36.495Z,6.32
2022-07-30T23:43:40.036Z,7.15
2022-07-30T23:48:43.028Z,7.47
2022-07-30T23:53:47.695Z,7.10
2022-07-30T23:58:52.388Z,7.25
